sensor_id;sensor_type;location;lat;lon;timestamp;P1;durP1;ratioP1;P2;durP2;ratioP2
43807;SDS011;29438;50.664;10.098;2022-09-16T00:00:31;6.65;;;3.22;;
43807;SDS011;29438;50.664;10.098;2022-09-16T00:02:57;7.90;;;3.53;;
43807;SDS011;29438;50.664;10.098;2022-09-16T00:05:22;6.95;;;3.22;;
43807;SDS011;29438;50.664;10.098;2022-09-16T00:07:48;6.20;;;3.22;;
43807;SDS011;29438;50.664;10.098;2022-09-16T00:10:14;7.03;;;3.35;;
43807;SDS011;29438;50.664;10.098;2022-09-16T00:12:40;5.88;;;3.10;;
43807;SDS011;29438;50.664;10.098;2022-09-16T00:15:06;5.10;;;2.97;;
43807;SDS011;29438;50.664;10.098;2022-09-16T00:17:32;7.13;;;3.25;;
43807;SDS011;29438;50.664;10.098;2022-09-16T00:19:58;5.72;;;2.72;;
43807;SDS011;29438;50.664;10.098;2022-09-16T00:22:24;4.63;;;2.67;;
43807;SDS011;29438;50.664;10.098;2022-09-16T00:24:52;8.15;;;2.80;;
43807;SDS011;29438;50.664;10.098;2022-09-16T00:27:17;5.78;;;2.85;;
43807;SDS011;29438;50.664;10.098;2022-09-16T00:29:43;5.90;;;2.95;;
43807;SDS011;29438;50.664;10.098;2022-09-16T00:32:09;7.03;;;2.80;;
43807;SDS011;29438;50.664;10.098;2022-09-16T00:34:34;8.98;;;3.25;;
43807;SDS011;29438;50.664;10.098;2022-09-16T00:36:59;7.53;;;3.00;;
43807;SDS011;29438;50.664;10.098;2022-09-16T00:39:27;5.35;;;3.22;;
43807;SDS011;29438;50.664;10.098;2022-09-16T00:41:53;7.03;;;3.05;;
43807;SDS011;29438;50.664;10.098;2022-09-16T00:50:11;7.53;;;3.67;;
43807;SDS011;29438;50.664;10.098;2022-09-16T00:53:00;7.82;;;3.22;;
43807;SDS011;29438;50.664;10.098;2022-09-16T00:55:27;7.07;;;3.53;;
43807;SDS011;29438;50.664;10.098;2022-09-16T00:57:58;6.65;;;3.88;;
43807;SDS011;29438;50.664;10.098;2022-09-16T01:00:29;7.63;;;3.55;;
43807;SDS011;29438;50.664;10.098;2022-09-16T01:02:55;11.35;;;4.63;;
43807;SDS011;29438;50.664;10.098;2022-09-16T01:05:21;8.43;;;4.10;;
43807;SDS011;29438;50.664;10.098;2022-09-16T01:07:50;7.38;;;3.60;;
43807;SDS011;29438;50.664;10.098;2022-09-16T01:10:19;10.70;;;3.85;;
43807;SDS011;29438;50.664;10.098;2022-09-16T01:12:47;9.93;;;4.40;;
43807;SDS011;29438;50.664;10.098;2022-09-16T01:15:15;10.55;;;4.43;;
43807;SDS011;29438;50.664;10.098;2022-09-16T01:23:22;8.82;;;5.25;;
43807;SDS011;29438;50.664;10.098;2022-09-16T01:31:55;11.13;;;5.95;;
43807;SDS011;29438;50.664;10.098;2022-09-16T01:37:00;11.43;;;5.80;;
43807;SDS011;29438;50.664;10.098;2022-09-16T01:50:41;11.93;;;6.68;;
43807;SDS011;29438;50.664;10.098;2022-09-16T01:53:41;12.77;;;6.45;;
43807;SDS011;29438;50.664;10.098;2022-09-16T01:56:56;11.45;;;6.93;;
43807;SDS011;29438;50.664;10.098;2022-09-16T01:59:06;11.20;;;6.15;;
43807;SDS011;29438;50.664;10.098;2022-09-16T02:01:42;11.98;;;6.68;;
43807;SDS011;29438;50.664;10.098;2022-09-16T02:04:14;15.40;;;7.05;;
43807;SDS011;29438;50.664;10.098;2022-09-16T02:06:45;13.30;;;6.78;;
43807;SDS011;29438;50.664;10.098;2022-09-16T02:09:15;12.57;;;6.72;;
43807;SDS011;29438;50.664;10.098;2022-09-16T02:11:45;15.77;;;7.03;;
43807;SDS011;29438;50.664;10.098;2022-09-16T02:14:14;15.55;;;7.25;;
43807;SDS011;29438;50.664;10.098;2022-09-16T02:16:50;14.18;;;7.57;;
43807;SDS011;29438;50.664;10.098;2022-09-16T02:19:28;14.52;;;7.43;;
43807;SDS011;29438;50.664;10.098;2022-09-16T02:22:00;13.57;;;7.10;;
43807;SDS011;29438;50.664;10.098;2022-09-16T02:24:31;14.68;;;7.18;;
43807;SDS011;29438;50.664;10.098;2022-09-16T02:26:59;13.88;;;7.38;;
43807;SDS011;29438;50.664;10.098;2022-09-16T02:29:29;13.38;;;7.50;;
43807;SDS011;29438;50.664;10.098;2022-09-16T02:32:00;11.57;;;6.93;;
43807;SDS011;29438;50.664;10.098;2022-09-16T02:34:31;13.27;;;6.70;;
43807;SDS011;29438;50.664;10.098;2022-09-16T02:37:07;12.68;;;6.57;;
43807;SDS011;29438;50.664;10.098;2022-09-16T02:39:37;15.23;;;8.05;;
43807;SDS011;29438;50.664;10.098;2022-09-16T02:42:05;13.23;;;7.40;;
43807;SDS011;29438;50.664;10.098;2022-09-16T02:44:31;14.77;;;7.32;;
43807;SDS011;29438;50.664;10.098;2022-09-16T02:49:59;14.30;;;7.13;;
43807;SDS011;29438;50.664;10.098;2022-09-16T02:52:35;13.88;;;7.38;;
43807;SDS011;29438;50.664;10.098;2022-09-16T02:55:14;11.15;;;6.63;;
43807;SDS011;29438;50.664;10.098;2022-09-16T02:57:59;13.07;;;6.65;;
43807;SDS011;29438;50.664;10.098;2022-09-16T03:00:25;13.02;;;6.90;;
43807;SDS011;29438;50.664;10.098;2022-09-16T03:02:53;14.27;;;7.20;;
43807;SDS011;29438;50.664;10.098;2022-09-16T03:05:19;11.40;;;6.63;;
43807;SDS011;29438;50.664;10.098;2022-09-16T03:07:50;14.88;;;6.97;;
43807;SDS011;29438;50.664;10.098;2022-09-16T03:10:16;13.27;;;6.40;;
43807;SDS011;29438;50.664;10.098;2022-09-16T03:12:47;14.73;;;6.35;;
43807;SDS011;29438;50.664;10.098;2022-09-16T03:20:44;11.85;;;5.78;;
43807;SDS011;29438;50.664;10.098;2022-09-16T03:24:00;15.48;;;5.72;;
43807;SDS011;29438;50.664;10.098;2022-09-16T03:26:52;10.57;;;5.30;;
43807;SDS011;29438;50.664;10.098;2022-09-16T03:34:45;12.95;;;5.90;;
43807;SDS011;29438;50.664;10.098;2022-09-16T03:37:19;10.35;;;5.47;;
43807;SDS011;29438;50.664;10.098;2022-09-16T03:39:48;14.88;;;5.75;;
43807;SDS011;29438;50.664;10.098;2022-09-16T03:42:17;12.35;;;5.93;;
43807;SDS011;29438;50.664;10.098;2022-09-16T03:44:43;12.55;;;6.22;;
43807;SDS011;29438;50.664;10.098;2022-09-16T03:47:09;10.65;;;6.25;;
43807;SDS011;29438;50.664;10.098;2022-09-16T03:49:35;12.15;;;5.97;;
43807;SDS011;29438;50.664;10.098;2022-09-16T03:52:01;10.73;;;5.95;;
43807;SDS011;29438;50.664;10.098;2022-09-16T03:54:29;11.32;;;6.22;;
43807;SDS011;29438;50.664;10.098;2022-09-16T03:56:55;11.65;;;6.05;;
43807;SDS011;29438;50.664;10.098;2022-09-16T03:59:21;10.73;;;6.32;;
43807;SDS011;29438;50.664;10.098;2022-09-16T04:01:46;9.93;;;6.03;;
43807;SDS011;29438;50.664;10.098;2022-09-16T04:04:12;10.88;;;6.00;;
43807;SDS011;29438;50.664;10.098;2022-09-16T04:06:37;13.40;;;5.97;;
43807;SDS011;29438;50.664;10.098;2022-09-16T04:09:04;10.63;;;6.13;;
43807;SDS011;29438;50.664;10.098;2022-09-16T04:11:31;11.27;;;6.03;;
43807;SDS011;29438;50.664;10.098;2022-09-16T04:13:57;11.35;;;6.40;;
43807;SDS011;29438;50.664;10.098;2022-09-16T04:16:23;10.65;;;5.97;;
43807;SDS011;29438;50.664;10.098;2022-09-16T04:18:49;10.07;;;5.90;;
43807;SDS011;29438;50.664;10.098;2022-09-16T04:21:15;10.20;;;5.78;;
43807;SDS011;29438;50.664;10.098;2022-09-16T04:23:41;9.25;;;5.28;;
43807;SDS011;29438;50.664;10.098;2022-09-16T04:26:06;9.80;;;4.95;;
43807;SDS011;29438;50.664;10.098;2022-09-16T04:28:32;11.85;;;5.47;;
43807;SDS011;29438;50.664;10.098;2022-09-16T04:30:59;9.38;;;5.22;;
43807;SDS011;29438;50.664;10.098;2022-09-16T04:33:26;10.75;;;5.85;;
43807;SDS011;29438;50.664;10.098;2022-09-16T04:35:53;9.25;;;5.15;;
43807;SDS011;29438;50.664;10.098;2022-09-16T04:38:18;9.25;;;5.13;;
43807;SDS011;29438;50.664;10.098;2022-09-16T04:40:44;9.23;;;4.82;;
43807;SDS011;29438;50.664;10.098;2022-09-16T04:43:09;9.73;;;5.18;;
43807;SDS011;29438;50.664;10.098;2022-09-16T04:45:35;9.85;;;4.97;;
43807;SDS011;29438;50.664;10.098;2022-09-16T04:48:00;9.75;;;4.93;;
43807;SDS011;29438;50.664;10.098;2022-09-16T04:50:26;9.30;;;4.68;;
43807;SDS011;29438;50.664;10.098;2022-09-16T04:52:51;8.68;;;4.60;;
43807;SDS011;29438;50.664;10.098;2022-09-16T04:55:17;8.55;;;4.60;;
43807;SDS011;29438;50.664;10.098;2022-09-16T04:57:43;9.57;;;4.25;;
43807;SDS011;29438;50.664;10.098;2022-09-16T05:00:09;7.38;;;4.40;;
43807;SDS011;29438;50.664;10.098;2022-09-16T05:02:35;9.02;;;4.30;;
43807;SDS011;29438;50.664;10.098;2022-09-16T05:05:00;8.13;;;4.25;;
43807;SDS011;29438;50.664;10.098;2022-09-16T05:07:27;7.45;;;3.78;;
43807;SDS011;29438;50.664;10.098;2022-09-16T05:09:53;7.47;;;3.45;;
43807;SDS011;29438;50.664;10.098;2022-09-16T05:12:19;7.25;;;3.65;;
43807;SDS011;29438;50.664;10.098;2022-09-16T05:14:44;8.00;;;3.67;;
43807;SDS011;29438;50.664;10.098;2022-09-16T05:17:09;7.85;;;3.47;;
43807;SDS011;29438;50.664;10.098;2022-09-16T05:19:35;7.63;;;3.78;;
43807;SDS011;29438;50.664;10.098;2022-09-16T05:22:00;8.40;;;3.40;;
43807;SDS011;29438;50.664;10.098;2022-09-16T05:24:30;6.35;;;3.33;;
43807;SDS011;29438;50.664;10.098;2022-09-16T05:26:59;6.00;;;3.20;;
43807;SDS011;29438;50.664;10.098;2022-09-16T05:29:24;6.20;;;3.47;;
43807;SDS011;29438;50.664;10.098;2022-09-16T05:31:50;5.82;;;3.13;;
43807;SDS011;29438;50.664;10.098;2022-09-16T05:34:19;6.65;;;3.47;;
43807;SDS011;29438;50.664;10.098;2022-09-16T05:36:47;7.68;;;3.08;;
43807;SDS011;29438;50.664;10.098;2022-09-16T05:39:14;6.07;;;3.05;;
43807;SDS011;29438;50.664;10.098;2022-09-16T05:41:42;8.30;;;3.05;;
43807;SDS011;29438;50.664;10.098;2022-09-16T05:44:08;4.40;;;2.40;;
43807;SDS011;29438;50.664;10.098;2022-09-16T05:46:33;7.50;;;3.17;;
43807;SDS011;29438;50.664;10.098;2022-09-16T05:48:59;4.95;;;2.65;;
43807;SDS011;29438;50.664;10.098;2022-09-16T05:51:25;4.85;;;2.55;;
43807;SDS011;29438;50.664;10.098;2022-09-16T05:53:52;6.85;;;3.08;;
43807;SDS011;29438;50.664;10.098;2022-09-16T05:56:22;6.40;;;2.60;;
43807;SDS011;29438;50.664;10.098;2022-09-16T05:58:53;6.63;;;2.95;;
43807;SDS011;29438;50.664;10.098;2022-09-16T06:01:21;7.45;;;2.80;;
43807;SDS011;29438;50.664;10.098;2022-09-16T06:03:49;5.50;;;2.70;;
43807;SDS011;29438;50.664;10.098;2022-09-16T06:06:37;6.40;;;2.88;;
43807;SDS011;29438;50.664;10.098;2022-09-16T06:09:06;7.18;;;3.15;;
43807;SDS011;29438;50.664;10.098;2022-09-16T06:11:40;5.93;;;2.70;;
43807;SDS011;29438;50.664;10.098;2022-09-16T06:14:08;7.57;;;3.47;;
43807;SDS011;29438;50.664;10.098;2022-09-16T06:16:34;8.05;;;3.15;;
43807;SDS011;29438;50.664;10.098;2022-09-16T06:19:01;7.40;;;3.47;;
43807;SDS011;29438;50.664;10.098;2022-09-16T06:21:34;6.65;;;2.92;;
43807;SDS011;29438;50.664;10.098;2022-09-16T06:24:00;6.53;;;3.00;;
43807;SDS011;29438;50.664;10.098;2022-09-16T06:26:27;6.15;;;2.90;;
43807;SDS011;29438;50.664;10.098;2022-09-16T06:28:53;6.55;;;3.13;;
43807;SDS011;29438;50.664;10.098;2022-09-16T06:31:20;4.93;;;2.92;;
43807;SDS011;29438;50.664;10.098;2022-09-16T06:33:50;5.05;;;2.75;;
43807;SDS011;29438;50.664;10.098;2022-09-16T06:36:24;4.90;;;2.63;;
43807;SDS011;29438;50.664;10.098;2022-09-16T06:38:55;5.70;;;2.35;;
43807;SDS011;29438;50.664;10.098;2022-09-16T06:41:20;5.65;;;2.97;;
43807;SDS011;29438;50.664;10.098;2022-09-16T06:43:47;6.28;;;2.88;;
43807;SDS011;29438;50.664;10.098;2022-09-16T06:46:15;6.00;;;2.60;;
43807;SDS011;29438;50.664;10.098;2022-09-16T06:48:50;6.35;;;2.63;;
43807;SDS011;29438;50.664;10.098;2022-09-16T06:51:20;7.13;;;3.05;;
43807;SDS011;29438;50.664;10.098;2022-09-16T06:53:48;6.82;;;3.35;;
43807;SDS011;29438;50.664;10.098;2022-09-16T06:56:15;6.07;;;3.47;;
43807;SDS011;29438;50.664;10.098;2022-09-16T06:58:44;6.63;;;3.03;;
43807;SDS011;29438;50.664;10.098;2022-09-16T07:01:14;4.80;;;2.60;;
43807;SDS011;29438;50.664;10.098;2022-09-16T07:03:48;8.40;;;2.70;;
43807;SDS011;29438;50.664;10.098;2022-09-16T07:06:16;5.18;;;2.60;;
43807;SDS011;29438;50.664;10.098;2022-09-16T07:08:43;5.50;;;2.55;;
43807;SDS011;29438;50.664;10.098;2022-09-16T07:11:10;4.03;;;2.60;;
43807;SDS011;29438;50.664;10.098;2022-09-16T07:13:41;6.68;;;2.85;;
43807;SDS011;29438;50.664;10.098;2022-09-16T07:16:08;4.63;;;2.45;;
43807;SDS011;29438;50.664;10.098;2022-09-16T07:18:35;7.45;;;2.40;;
43807;SDS011;29438;50.664;10.098;2022-09-16T07:21:03;5.13;;;2.25;;
43807;SDS011;29438;50.664;10.098;2022-09-16T07:23:30;5.47;;;2.28;;
43807;SDS011;29438;50.664;10.098;2022-09-16T07:26:04;4.35;;;2.40;;
43807;SDS011;29438;50.664;10.098;2022-09-16T07:28:31;5.85;;;2.08;;
43807;SDS011;29438;50.664;10.098;2022-09-16T07:31:04;6.97;;;2.20;;
43807;SDS011;29438;50.664;10.098;2022-09-16T07:36:00;4.35;;;2.10;;
43807;SDS011;29438;50.664;10.098;2022-09-16T07:38:28;2.97;;;1.80;;
43807;SDS011;29438;50.664;10.098;2022-09-16T07:40:53;2.85;;;1.45;;
43807;SDS011;29438;50.664;10.098;2022-09-16T07:43:19;3.38;;;1.58;;
43807;SDS011;29438;50.664;10.098;2022-09-16T07:45:45;5.47;;;1.90;;
43807;SDS011;29438;50.664;10.098;2022-09-16T07:48:11;3.70;;;1.55;;
43807;SDS011;29438;50.664;10.098;2022-09-16T07:50:36;3.88;;;1.40;;
43807;SDS011;29438;50.664;10.098;2022-09-16T07:53:02;2.78;;;1.25;;
43807;SDS011;29438;50.664;10.098;2022-09-16T07:55:28;6.93;;;1.30;;
43807;SDS011;29438;50.664;10.098;2022-09-16T07:57:53;2.80;;;1.48;;
43807;SDS011;29438;50.664;10.098;2022-09-16T08:00:19;2.35;;;1.15;;
43807;SDS011;29438;50.664;10.098;2022-09-16T08:02:45;3.20;;;1.00;;
43807;SDS011;29438;50.664;10.098;2022-09-16T08:05:11;3.38;;;0.95;;
43807;SDS011;29438;50.664;10.098;2022-09-16T08:07:37;2.85;;;1.00;;
43807;SDS011;29438;50.664;10.098;2022-09-16T08:10:03;4.72;;;1.15;;
43807;SDS011;29438;50.664;10.098;2022-09-16T08:12:29;2.55;;;0.95;;
43807;SDS011;29438;50.664;10.098;2022-09-16T08:14:57;3.25;;;1.00;;
43807;SDS011;29438;50.664;10.098;2022-09-16T08:17:24;3.17;;;0.70;;
43807;SDS011;29438;50.664;10.098;2022-09-16T08:19:50;3.28;;;0.85;;
43807;SDS011;29438;50.664;10.098;2022-09-16T08:22:15;3.00;;;0.90;;
43807;SDS011;29438;50.664;10.098;2022-09-16T08:24:41;2.13;;;0.93;;
43807;SDS011;29438;50.664;10.098;2022-09-16T08:27:06;2.60;;;0.93;;
43807;SDS011;29438;50.664;10.098;2022-09-16T08:29:32;2.78;;;1.02;;
43807;SDS011;29438;50.664;10.098;2022-09-16T08:31:57;2.28;;;0.80;;
43807;SDS011;29438;50.664;10.098;2022-09-16T08:34:23;5.90;;;1.23;;
43807;SDS011;29438;50.664;10.098;2022-09-16T08:36:48;3.88;;;1.30;;
43807;SDS011;29438;50.664;10.098;2022-09-16T08:39:14;5.50;;;1.50;;
43807;SDS011;29438;50.664;10.098;2022-09-16T08:49:59;4.05;;;0.90;;
43807;SDS011;29438;50.664;10.098;2022-09-16T08:52:29;3.08;;;1.50;;
43807;SDS011;29438;50.664;10.098;2022-09-16T08:54:58;2.67;;;1.00;;
43807;SDS011;29438;50.664;10.098;2022-09-16T08:57:33;3.15;;;1.10;;
43807;SDS011;29438;50.664;10.098;2022-09-16T09:00:05;3.50;;;0.80;;
43807;SDS011;29438;50.664;10.098;2022-09-16T09:05:32;1.90;;;0.50;;
43807;SDS011;29438;50.664;10.098;2022-09-16T09:08:22;1.70;;;0.60;;
43807;SDS011;29438;50.664;10.098;2022-09-16T09:11:23;1.90;;;0.65;;
43807;SDS011;29438;50.664;10.098;2022-09-16T09:22:54;1.92;;;0.57;;
43807;SDS011;29438;50.664;10.098;2022-09-16T09:31:34;2.70;;;0.95;;
43807;SDS011;29438;50.664;10.098;2022-09-16T09:34:13;5.43;;;1.13;;
43807;SDS011;29438;50.664;10.098;2022-09-16T09:45:54;2.63;;;0.82;;
43807;SDS011;29438;50.664;10.098;2022-09-16T09:48:43;3.05;;;0.70;;
43807;SDS011;29438;50.664;10.098;2022-09-16T09:51:20;3.33;;;0.85;;
43807;SDS011;29438;50.664;10.098;2022-09-16T09:53:56;1.80;;;0.80;;
43807;SDS011;29438;50.664;10.098;2022-09-16T09:56:27;2.53;;;0.88;;
43807;SDS011;29438;50.664;10.098;2022-09-16T10:02:01;2.45;;;0.75;;
43807;SDS011;29438;50.664;10.098;2022-09-16T10:04:36;2.40;;;0.77;;
43807;SDS011;29438;50.664;10.098;2022-09-16T10:07:02;5.70;;;1.00;;
43807;SDS011;29438;50.664;10.098;2022-09-16T10:09:29;2.67;;;1.00;;
43807;SDS011;29438;50.664;10.098;2022-09-16T10:11:55;2.33;;;1.00;;
43807;SDS011;29438;50.664;10.098;2022-09-16T10:14:31;2.15;;;1.00;;
43807;SDS011;29438;50.664;10.098;2022-09-16T10:17:03;1.65;;;0.88;;
43807;SDS011;29438;50.664;10.098;2022-09-16T10:19:51;5.53;;;2.10;;
43807;SDS011;29438;50.664;10.098;2022-09-16T10:22:23;2.50;;;1.00;;
43807;SDS011;29438;50.664;10.098;2022-09-16T10:24:52;3.67;;;1.13;;
43807;SDS011;29438;50.664;10.098;2022-09-16T10:27:26;3.67;;;1.00;;
43807;SDS011;29438;50.664;10.098;2022-09-16T10:30:03;3.17;;;1.45;;
43807;SDS011;29438;50.664;10.098;2022-09-16T10:32:57;2.75;;;1.35;;
43807;SDS011;29438;50.664;10.098;2022-09-16T10:35:37;2.58;;;1.25;;
43807;SDS011;29438;50.664;10.098;2022-09-16T10:38:05;5.47;;;2.00;;
43807;SDS011;29438;50.664;10.098;2022-09-16T10:40:55;3.25;;;1.10;;
43807;SDS011;29438;50.664;10.098;2022-09-16T10:43:25;2.33;;;0.80;;
43807;SDS011;29438;50.664;10.098;2022-09-16T10:45:52;2.45;;;0.90;;
43807;SDS011;29438;50.664;10.098;2022-09-16T10:48:19;1.55;;;0.80;;
43807;SDS011;29438;50.664;10.098;2022-09-16T10:50:55;3.45;;;0.85;;
43807;SDS011;29438;50.664;10.098;2022-09-16T10:53:28;3.00;;;1.00;;
43807;SDS011;29438;50.664;10.098;2022-09-16T10:55:59;2.83;;;0.80;;
43807;SDS011;29438;50.664;10.098;2022-09-16T10:58:27;2.30;;;0.90;;
43807;SDS011;29438;50.664;10.098;2022-09-16T11:06:35;3.95;;;0.80;;
43807;SDS011;29438;50.664;10.098;2022-09-16T11:09:24;2.30;;;1.02;;
43807;SDS011;29438;50.664;10.098;2022-09-16T11:12:16;3.03;;;0.70;;
43807;SDS011;29438;50.664;10.098;2022-09-16T11:20:52;0.60;;;0.20;;
43807;SDS011;29438;50.664;10.098;2022-09-16T11:23:41;0.60;;;0.13;;
43807;SDS011;29438;50.664;10.098;2022-09-16T11:28:55;0.50;;;0.10;;
43807;SDS011;29438;50.664;10.098;2022-09-16T11:31:38;0.90;;;0.30;;
43807;SDS011;29438;50.664;10.098;2022-09-16T11:47:47;0.57;;;0.20;;
43807;SDS011;29438;50.664;10.098;2022-09-16T11:50:40;1.48;;;0.10;;
43807;SDS011;29438;50.664;10.098;2022-09-16T12:06:45;0.73;;;0.30;;
43807;SDS011;29438;50.664;10.098;2022-09-16T12:09:32;1.60;;;0.45;;
43807;SDS011;29438;50.664;10.098;2022-09-16T12:12:14;1.02;;;0.40;;
43807;SDS011;29438;50.664;10.098;2022-09-16T12:14:44;1.95;;;0.30;;
43807;SDS011;29438;50.664;10.098;2022-09-16T12:17:19;2.10;;;0.40;;
43807;SDS011;29438;50.664;10.098;2022-09-16T12:19:53;2.03;;;0.35;;
43807;SDS011;29438;50.664;10.098;2022-09-16T12:22:28;0.93;;;0.25;;
43807;SDS011;29438;50.664;10.098;2022-09-16T12:25:10;1.23;;;0.35;;
43807;SDS011;29438;50.664;10.098;2022-09-16T12:27:51;1.50;;;0.30;;
43807;SDS011;29438;50.664;10.098;2022-09-16T12:30:27;1.13;;;0.30;;
43807;SDS011;29438;50.664;10.098;2022-09-16T12:33:21;1.13;;;0.40;;
43807;SDS011;29438;50.664;10.098;2022-09-16T12:38:26;1.25;;;0.08;;
43807;SDS011;29438;50.664;10.098;2022-09-16T12:40:58;1.00;;;0.20;;
43807;SDS011;29438;50.664;10.098;2022-09-16T12:49:30;1.08;;;0.40;;
43807;SDS011;29438;50.664;10.098;2022-09-16T12:52:26;0.90;;;0.45;;
43807;SDS011;29438;50.664;10.098;2022-09-16T12:58:17;1.95;;;0.70;;
43807;SDS011;29438;50.664;10.098;2022-09-16T13:04:03;1.05;;;0.60;;
43807;SDS011;29438;50.664;10.098;2022-09-16T13:06:37;1.20;;;0.40;;
43807;SDS011;29438;50.664;10.098;2022-09-16T13:09:28;1.40;;;0.60;;
43807;SDS011;29438;50.664;10.098;2022-09-16T13:12:04;1.02;;;0.40;;
43807;SDS011;29438;50.664;10.098;2022-09-16T13:14:52;2.00;;;0.75;;
43807;SDS011;29438;50.664;10.098;2022-09-16T13:17:27;0.82;;;0.50;;
43807;SDS011;29438;50.664;10.098;2022-09-16T13:19:53;1.60;;;0.43;;
43807;SDS011;29438;50.664;10.098;2022-09-16T13:22:28;1.35;;;0.47;;
43807;SDS011;29438;50.664;10.098;2022-09-16T13:25:07;1.77;;;0.60;;
43807;SDS011;29438;50.664;10.098;2022-09-16T13:27:37;1.60;;;0.82;;
43807;SDS011;29438;50.664;10.098;2022-09-16T13:32:36;1.83;;;0.60;;
43807;SDS011;29438;50.664;10.098;2022-09-16T13:37:43;1.40;;;0.60;;
43807;SDS011;29438;50.664;10.098;2022-09-16T13:42:47;3.15;;;0.85;;
43807;SDS011;29438;50.664;10.098;2022-09-16T13:45:30;1.85;;;0.70;;
43807;SDS011;29438;50.664;10.098;2022-09-16T13:48:04;1.58;;;0.80;;
43807;SDS011;29438;50.664;10.098;2022-09-16T13:50:33;2.33;;;0.70;;
43807;SDS011;29438;50.664;10.098;2022-09-16T13:53:07;1.50;;;0.60;;
43807;SDS011;29438;50.664;10.098;2022-09-16T13:55:45;3.15;;;0.90;;
43807;SDS011;29438;50.664;10.098;2022-09-16T13:58:18;3.13;;;0.80;;
43807;SDS011;29438;50.664;10.098;2022-09-16T14:09:58;2.75;;;1.20;;
43807;SDS011;29438;50.664;10.098;2022-09-16T14:12:46;2.80;;;0.88;;
43807;SDS011;29438;50.664;10.098;2022-09-16T14:15:36;2.42;;;0.90;;
43807;SDS011;29438;50.664;10.098;2022-09-16T14:18:19;3.40;;;1.00;;
43807;SDS011;29438;50.664;10.098;2022-09-16T14:21:02;3.25;;;1.10;;
43807;SDS011;29438;50.664;10.098;2022-09-16T14:23:30;1.60;;;0.80;;
43807;SDS011;29438;50.664;10.098;2022-09-16T14:26:14;1.92;;;1.05;;
43807;SDS011;29438;50.664;10.098;2022-09-16T14:28:41;1.92;;;0.93;;
43807;SDS011;29438;50.664;10.098;2022-09-16T14:31:09;1.92;;;1.00;;
43807;SDS011;29438;50.664;10.098;2022-09-16T14:33:43;2.22;;;1.00;;
43807;SDS011;29438;50.664;10.098;2022-09-16T14:36:23;2.95;;;1.00;;
43807;SDS011;29438;50.664;10.098;2022-09-16T14:38:55;2.58;;;1.20;;
43807;SDS011;29438;50.664;10.098;2022-09-16T14:41:52;2.03;;;1.00;;
43807;SDS011;29438;50.664;10.098;2022-09-16T14:44:41;2.72;;;1.10;;
43807;SDS011;29438;50.664;10.098;2022-09-16T14:47:16;4.68;;;1.20;;
43807;SDS011;29438;50.664;10.098;2022-09-16T14:49:48;2.42;;;1.10;;
43807;SDS011;29438;50.664;10.098;2022-09-16T14:52:20;1.58;;;1.02;;
43807;SDS011;29438;50.664;10.098;2022-09-16T14:54:47;1.58;;;1.10;;
43807;SDS011;29438;50.664;10.098;2022-09-16T14:57:21;2.55;;;1.27;;
43807;SDS011;29438;50.664;10.098;2022-09-16T14:59:50;2.63;;;1.50;;
43807;SDS011;29438;50.664;10.098;2022-09-16T15:02:22;2.75;;;1.50;;
43807;SDS011;29438;50.664;10.098;2022-09-16T15:04:50;2.28;;;1.45;;
43807;SDS011;29438;50.664;10.098;2022-09-16T15:07:29;2.55;;;1.30;;
43807;SDS011;29438;50.664;10.098;2022-09-16T15:12:31;3.28;;;1.63;;
43807;SDS011;29438;50.664;10.098;2022-09-16T15:15:03;3.47;;;1.60;;
43807;SDS011;29438;50.664;10.098;2022-09-16T15:17:34;2.95;;;1.52;;
43807;SDS011;29438;50.664;10.098;2022-09-16T15:20:00;3.10;;;1.50;;
43807;SDS011;29438;50.664;10.098;2022-09-16T15:22:25;2.65;;;1.63;;
43807;SDS011;29438;50.664;10.098;2022-09-16T15:24:52;3.00;;;1.63;;
43807;SDS011;29438;50.664;10.098;2022-09-16T15:27:21;4.00;;;2.10;;
43807;SDS011;29438;50.664;10.098;2022-09-16T15:29:52;2.53;;;1.80;;
43807;SDS011;29438;50.664;10.098;2022-09-16T15:32:24;3.28;;;2.15;;
43807;SDS011;29438;50.664;10.098;2022-09-16T15:35:10;2.33;;;1.70;;
43807;SDS011;29438;50.664;10.098;2022-09-16T15:37:36;3.45;;;1.90;;
43807;SDS011;29438;50.664;10.098;2022-09-16T15:40:18;4.75;;;2.10;;
43807;SDS011;29438;50.664;10.098;2022-09-16T15:42:47;2.65;;;1.70;;
43807;SDS011;29438;50.664;10.098;2022-09-16T15:45:25;3.08;;;1.75;;
43807;SDS011;29438;50.664;10.098;2022-09-16T15:47:53;3.38;;;2.22;;
43807;SDS011;29438;50.664;10.098;2022-09-16T15:50:25;3.47;;;2.20;;
43807;SDS011;29438;50.664;10.098;2022-09-16T15:53:04;3.75;;;2.10;;
43807;SDS011;29438;50.664;10.098;2022-09-16T15:58:12;4.90;;;2.47;;
43807;SDS011;29438;50.664;10.098;2022-09-16T16:11:59;2.35;;;1.70;;
43807;SDS011;29438;50.664;10.098;2022-09-16T16:14:29;1.90;;;1.38;;
43807;SDS011;29438;50.664;10.098;2022-09-16T16:17:02;3.25;;;1.70;;
43807;SDS011;29438;50.664;10.098;2022-09-16T16:19:28;2.47;;;1.63;;
43807;SDS011;29438;50.664;10.098;2022-09-16T16:21:54;2.08;;;1.40;;
43807;SDS011;29438;50.664;10.098;2022-09-16T16:24:21;2.35;;;1.30;;
43807;SDS011;29438;50.664;10.098;2022-09-16T16:26:48;3.67;;;1.70;;
43807;SDS011;29438;50.664;10.098;2022-09-16T16:29:14;2.80;;;1.50;;
43807;SDS011;29438;50.664;10.098;2022-09-16T16:31:39;2.70;;;1.65;;
43807;SDS011;29438;50.664;10.098;2022-09-16T16:34:21;2.20;;;1.42;;
43807;SDS011;29438;50.664;10.098;2022-09-16T16:36:46;1.92;;;1.38;;
43807;SDS011;29438;50.664;10.098;2022-09-16T16:39:12;2.13;;;1.38;;
43807;SDS011;29438;50.664;10.098;2022-09-16T16:41:37;2.10;;;1.65;;
43807;SDS011;29438;50.664;10.098;2022-09-16T16:44:02;4.95;;;2.53;;
43807;SDS011;29438;50.664;10.098;2022-09-16T16:46:28;2.97;;;1.80;;
43807;SDS011;29438;50.664;10.098;2022-09-16T16:48:53;2.42;;;1.77;;
43807;SDS011;29438;50.664;10.098;2022-09-16T16:51:19;3.08;;;2.15;;
43807;SDS011;29438;50.664;10.098;2022-09-16T16:53:46;6.18;;;3.58;;
43807;SDS011;29438;50.664;10.098;2022-09-16T16:56:13;5.15;;;3.40;;
43807;SDS011;29438;50.664;10.098;2022-09-16T16:58:38;5.80;;;4.25;;
43807;SDS011;29438;50.664;10.098;2022-09-16T17:01:12;4.70;;;3.50;;
43807;SDS011;29438;50.664;10.098;2022-09-16T17:03:40;3.65;;;1.98;;
43807;SDS011;29438;50.664;10.098;2022-09-16T17:06:07;4.20;;;2.40;;
43807;SDS011;29438;50.664;10.098;2022-09-16T17:08:33;11.95;;;5.80;;
43807;SDS011;29438;50.664;10.098;2022-09-16T17:13:41;4.78;;;2.80;;
43807;SDS011;29438;50.664;10.098;2022-09-16T17:16:09;5.85;;;3.03;;
43807;SDS011;29438;50.664;10.098;2022-09-16T17:18:37;10.02;;;5.38;;
43807;SDS011;29438;50.664;10.098;2022-09-16T17:21:05;3.83;;;2.30;;
43807;SDS011;29438;50.664;10.098;2022-09-16T17:23:35;7.63;;;4.97;;
43807;SDS011;29438;50.664;10.098;2022-09-16T17:26:01;4.13;;;2.38;;
43807;SDS011;29438;50.664;10.098;2022-09-16T17:28:28;8.48;;;4.45;;
43807;SDS011;29438;50.664;10.098;2022-09-16T17:30:54;3.25;;;2.38;;
43807;SDS011;29438;50.664;10.098;2022-09-16T17:33:20;9.38;;;5.65;;
43807;SDS011;29438;50.664;10.098;2022-09-16T17:35:46;4.20;;;2.58;;
43807;SDS011;29438;50.664;10.098;2022-09-16T17:38:12;4.43;;;2.25;;
43807;SDS011;29438;50.664;10.098;2022-09-16T17:40:38;2.70;;;1.38;;
43807;SDS011;29438;50.664;10.098;2022-09-16T17:43:04;5.78;;;2.00;;
43807;SDS011;29438;50.664;10.098;2022-09-16T17:45:32;2.65;;;1.50;;
43807;SDS011;29438;50.664;10.098;2022-09-16T17:47:58;3.45;;;1.50;;
43807;SDS011;29438;50.664;10.098;2022-09-16T17:50:24;2.90;;;1.60;;
43807;SDS011;29438;50.664;10.098;2022-09-16T17:52:50;2.22;;;1.77;;